Gatlinburg, TN

1:49 PM EDT on July 31, 2015 (GMT -0400)
mynatt park | | Change Station
CLOSE
Current Station
Personal Weather Station
Location: Gatlinburg, TN
Elevation: 1552 ft
Nearby Weather Stations

Elev 1552 ft 35.70 °N, 83.51 °W | Updated 8 minutes ago

Partly Cloudy
Partly Cloudy
87.4 °F
Feels Like 88 °F
N
2.2
Wind Variable Wind from ESE

Today
High -- | Low -- °F
--% Chance of Precip.
Yesterday
High -- | Low -- °F
Precip. -- in
6:41 AM 8:39 PM
Full, 100% visible
Pressure 30.03 in
Visibility 10.0 miles
Clouds Few 4200 ft
Scattered Clouds 25000 ft
Heat Index 88 °F
Dew Point 62 °F
Humidity 42%
Rainfall 0.00 in
Snow Depth Not available.
UV 9 out of 12
Pollen 4.70 out of 12
Air Quality Not available.
Flu Activity Not available.
METAR KTYS 311653Z 04009KT 10SM FEW042 SCT250 28/15 A3006 RMK AO2 SLP168 T02830150

More Conditions Fewer Conditions

Pressure 30.03 in
Visibility 10.0 miles
Clouds Few 4200 ft
Scattered Clouds 25000 ft
Heat Index 88 °F
Dew Point 62 °F
Humidity 42%
Rainfall 0.00 in
Snow Depth Not available.
UV 9 out of 12
Pollen 4.70 out of 12
Air Quality Not available.
Flu Activity Not available.
METAR KTYS 311653Z 04009KT 10SM FEW042 SCT250 28/15 A3006 RMK AO2 SLP168 T02830150

More Conditions Fewer Conditions

10-Day Weather Forecast

×

Almanac

Astronomy

Jul. 31, 2015 Rise Set
Actual Time
Civil Twilight
Nautical Twilight
Astronomical Twilight
Moon
Length of Visible Light
Length of Day
Tomorrow will be .
, % of the Moon is Illuminated

Today's Extremes

State Highs State Lows

Community

WunderPhotos

Upload Photos

1,842,703 photos uploaded!

WunderBlogs® & News

Nearby

Air Quality

  Air Quality AQ Index Pollutant
Not available.

Snow Depth

Station Depth Elevation

Earthquake Activity

City Distance Mag. Time & Date
Minimum magnitude displayed is 2.5.

Coastal Water Temperatures

Place Temperature

Stations

Nearby Weather Stations

Station Location Temp. Windchill Dew Point Humidity Wind Precip. Elev Updated Type